createdAt,value
2018-09-06T01:17:12.003Z,14.40
2018-09-06T01:20:37.820Z,15.77
2018-09-06T03:23:31.785Z,49.53
2018-09-06T03:29:00.565Z,37.03
2018-09-06T03:31:38.372Z,36.77
2018-09-06T03:42:27.332Z,34.67
2018-09-06T03:45:12.170Z,26.03
2018-09-06T03:47:52.736Z,24.50
2018-09-06T04:01:47.889Z,21.07
2018-09-06T04:07:01.829Z,21.27
2018-09-06T04:26:37.171Z,26.13
2018-09-06T04:40:09.304Z,57.30
2018-09-06T04:42:46.434Z,54.13
2018-09-06T04:45:27.586Z,55.27
2018-09-06T04:48:08.967Z,52.70
2018-09-06T04:50:49.115Z,46.10
2018-09-06T04:56:03.917Z,53.17
2018-09-06T04:58:45.442Z,52.63
2018-09-06T05:01:21.186Z,49.77
2018-09-06T05:04:03.149Z,52.97
2018-09-06T05:17:38.472Z,20.00
2018-09-06T05:20:59.529Z,15.80
2018-09-06T06:26:40.898Z,38.90
2018-09-06T06:40:19.723Z,38.07
2018-09-06T06:42:58.431Z,38.00
2018-09-06T06:51:29.886Z,36.43
2018-09-06T11:04:28.173Z,8.57
2018-09-06T12:16:44.489Z,8.73
2018-09-06T13:28:00.250Z,8.13
2018-09-06T13:30:28.531Z,7.33
2018-09-06T13:32:58.981Z,8.63
2018-09-06T13:35:28.442Z,8.00
2018-09-06T13:37:56.770Z,7.80
2018-09-06T13:40:25.089Z,7.77
2018-09-06T13:42:53.479Z,9.03
2018-09-06T13:45:21.883Z,7.53
2018-09-06T13:47:50.198Z,8.93
2018-09-06T13:50:18.538Z,7.57
2018-09-06T13:52:46.918Z,7.93
2018-09-06T13:55:15.251Z,8.20
2018-09-06T13:57:43.596Z,8.03
2018-09-06T14:00:11.988Z,8.03
2018-09-06T14:02:40.297Z,7.63
2018-09-06T14:05:10.262Z,7.83
2018-09-06T14:07:38.498Z,8.70
2018-09-06T14:10:06.884Z,7.70
2018-09-06T14:12:35.164Z,8.40
2018-09-06T14:16:47.242Z,7.63
2018-09-06T16:16:40.256Z,9.60
2018-09-06T16:19:09.339Z,9.30
2018-09-06T17:13:07.198Z,14.43
2018-09-06T17:15:35.531Z,12.77
2018-09-06T17:18:03.871Z,12.13
2018-09-06T17:20:32.285Z,13.03
2018-09-06T18:20:21.202Z,14.90
2018-09-06T18:22:49.786Z,14.67
2018-09-06T18:25:22.619Z,15.23
2018-09-06T18:27:50.943Z,15.37
2018-09-06T18:30:19.382Z,14.47
2018-09-06T18:32:47.788Z,15.40
2018-09-06T18:35:16.558Z,14.90
2018-09-06T18:37:44.853Z,15.47
2018-09-06T18:40:13.222Z,15.83
2018-09-06T18:42:41.550Z,14.77
2018-09-06T18:45:09.924Z,15.20
2018-09-06T18:47:42.663Z,15.73
2018-09-06T18:50:22.442Z,15.23
2018-09-06T18:52:50.727Z,15.27
2018-09-06T18:55:19.038Z,16.27
2018-09-06T18:57:47.330Z,14.77
2018-09-06T19:00:15.677Z,15.00
2018-09-06T19:02:43.939Z,15.40
2018-09-06T19:05:12.311Z,14.37
2018-09-06T19:07:40.596Z,17.57
2018-09-06T19:10:08.894Z,17.20
2018-09-06T21:13:23.174Z,17.53
2018-09-06T22:13:30.699Z,18.03
2018-09-06T22:19:11.004Z,20.97
2018-09-06T22:21:46.123Z,19.67
2018-09-06T22:24:14.496Z,19.23
